In Rescue
 
Open Full Screen Window  High Contrast Mode
May 27, 2024 11:20 AM PDT
Weather Information
Wind Direction
  ---
Wind Speed
  00 kt (0 mph)
Wind Gust
  00 kt (0 mph)
Altimeter
30.04 in
Visibility
10 SM
Temperature
23° C
73° F
Dewpoint
09° C
48° F
Humidity
41%
Sky Condition
Clear
VFR

METAR KSBD 271820Z AUTO 00000KT 10SM CLR 23/09 A3004 RMK AO2 T02270086

FAA Disclaimer: The data displayed is for advisory purposes only and is not to be used for flight planning or operations.